createdAt,value
2022-10-19T00:04:03.524Z,42.20
2022-10-19T00:09:14.054Z,43.85
2022-10-19T00:14:19.772Z,43.31
2022-10-19T00:19:26.225Z,43.91
2022-10-19T00:24:31.383Z,44.11
2022-10-19T00:29:34.965Z,43.57
2022-10-19T00:34:39.174Z,44.12
2022-10-19T00:39:44.394Z,44.82
2022-10-19T00:50:32.208Z,44.91
2022-10-19T00:55:39.639Z,45.53
2022-10-19T01:00:43.310Z,46.07
2022-10-19T01:05:46.998Z,47.43
2022-10-19T01:11:01.670Z,47.90
2022-10-19T01:16:12.998Z,47.14
2022-10-19T01:21:22.097Z,46.30
2022-10-19T01:26:48.300Z,44.79
2022-10-19T01:32:01.072Z,42.85
2022-10-19T01:37:13.884Z,46.45
2022-10-19T01:42:24.985Z,45.60
2022-10-19T01:47:35.585Z,43.50
2022-10-19T01:52:41.563Z,45.69
2022-10-19T01:57:49.989Z,46.38
2022-10-19T02:02:58.844Z,47.70
2022-10-19T02:08:07.108Z,46.86
2022-10-19T02:13:12.466Z,46.77
2022-10-19T02:18:24.479Z,47.07
2022-10-19T02:23:28.094Z,48.04
2022-10-19T02:28:31.969Z,47.61
2022-10-19T02:33:38.348Z,47.00
2022-10-19T02:38:43.552Z,48.66
2022-10-19T02:43:53.731Z,47.68
2022-10-19T02:48:59.998Z,48.48
2022-10-19T02:54:05.618Z,49.55
2022-10-19T02:59:09.202Z,49.45
2022-10-19T03:04:14.370Z,49.35
2022-10-19T03:09:18.015Z,49.73
2022-10-19T03:14:21.565Z,50.03
2022-10-19T03:19:27.019Z,49.96
2022-10-19T03:24:31.928Z,50.18
2022-10-19T03:29:35.539Z,50.51
2022-10-19T03:34:40.709Z,50.97
2022-10-19T03:39:44.236Z,51.39
2022-10-19T03:44:47.755Z,52.05
2022-10-19T03:49:52.894Z,52.54
2022-10-19T03:54:56.780Z,51.88
2022-10-19T04:00:07.865Z,52.74
2022-10-19T04:05:16.373Z,52.58
2022-10-19T04:10:20.011Z,52.59
2022-10-19T04:15:23.543Z,52.76
2022-10-19T04:20:28.725Z,53.08
2022-10-19T04:25:32.344Z,53.35
2022-10-19T04:30:36.037Z,53.33
2022-10-19T04:35:41.184Z,53.49
2022-10-19T04:40:44.706Z,53.73
2022-10-19T04:45:48.246Z,54.33
2022-10-19T04:50:55.568Z,54.50
2022-10-19T04:55:59.116Z,54.71
2022-10-19T05:01:08.877Z,55.26
2022-10-19T05:06:15.786Z,55.35
2022-10-19T05:11:20.006Z,55.33
2022-10-19T05:16:24.640Z,56.08
2022-10-19T05:21:31.167Z,56.19
2022-10-19T05:26:34.682Z,56.04
2022-10-19T05:31:38.233Z,55.89
2022-10-19T05:36:43.419Z,56.51
2022-10-19T05:41:47.891Z,56.33
2022-10-19T05:46:55.131Z,56.70
2022-10-19T05:52:00.394Z,56.62
2022-10-19T05:57:03.957Z,57.37
2022-10-19T06:02:07.951Z,57.35
2022-10-19T06:07:13.263Z,57.51
2022-10-19T06:12:20.442Z,57.92
2022-10-19T06:17:29.698Z,58.31
2022-10-19T06:22:34.892Z,58.46
2022-10-19T06:27:38.689Z,58.39
2022-10-19T06:32:42.399Z,58.91
2022-10-19T06:37:47.634Z,59.24
2022-10-19T06:42:51.204Z,59.41
2022-10-19T06:47:54.745Z,59.17
2022-10-19T06:53:00.172Z,59.72
2022-10-19T06:58:03.865Z,59.94
2022-10-19T07:03:07.758Z,59.87
2022-10-19T07:08:12.997Z,60.42
2022-10-19T07:13:16.615Z,60.34
2022-10-19T07:18:20.128Z,60.44
2022-10-19T07:23:25.966Z,61.51
2022-10-19T07:28:30.631Z,61.41
2022-10-19T07:33:34.395Z,61.48
2022-10-19T07:38:39.590Z,62.07
2022-10-19T07:43:44.101Z,61.58
2022-10-19T07:48:47.798Z,61.63
2022-10-19T07:53:54.289Z,62.29
2022-10-19T07:58:59.485Z,61.73
2022-10-19T08:09:51.358Z,62.05
2022-10-19T08:14:52.931Z,61.95
2022-10-19T08:19:56.430Z,62.97
2022-10-19T08:25:01.636Z,63.30
2022-10-19T08:30:05.647Z,62.95
2022-10-19T08:35:10.759Z,63.20
2022-10-19T08:40:22.658Z,63.77
2022-10-19T08:50:46.023Z,63.85
2022-10-19T08:56:03.702Z,64.16
2022-10-19T09:01:15.378Z,63.97
2022-10-19T09:06:24.449Z,63.95
2022-10-19T09:11:33.420Z,63.99
2022-10-19T09:16:37.362Z,63.84
2022-10-19T09:21:47.873Z,64.45
2022-10-19T09:26:56.299Z,65.04
2022-10-19T09:32:02.434Z,64.18
2022-10-19T09:37:06.170Z,64.71
2022-10-19T09:42:18.733Z,64.84
2022-10-19T09:47:33.279Z,64.86
2022-10-19T09:52:40.281Z,64.48
2022-10-19T09:57:45.191Z,64.99
2022-10-19T10:02:54.534Z,64.64
2022-10-19T10:07:58.129Z,64.56
2022-10-19T10:13:04.026Z,64.71
2022-10-19T10:18:06.854Z,65.40
2022-10-19T10:23:25.396Z,65.82
2022-10-19T10:28:31.423Z,65.36
2022-10-19T10:33:44.915Z,65.10
2022-10-19T10:38:54.032Z,65.72
2022-10-19T10:44:04.426Z,65.62
2022-10-19T10:49:17.578Z,65.59
2022-10-19T10:54:23.945Z,66.17
2022-10-19T10:59:34.736Z,65.97
2022-10-19T11:04:41.897Z,65.95
2022-10-19T11:09:51.602Z,65.89
2022-10-19T11:15:03.522Z,65.89
2022-10-19T11:20:08.384Z,66.13
2022-10-19T11:25:36.645Z,66.23
2022-10-19T11:30:56.227Z,66.82
2022-10-19T11:36:03.528Z,66.79
2022-10-19T11:41:18.594Z,66.49
2022-10-19T11:46:30.199Z,67.44
2022-10-19T11:51:38.007Z,67.49
2022-10-19T11:57:03.192Z,67.13
2022-10-19T12:02:28.063Z,68.44
2022-10-19T12:07:50.626Z,68.31
2022-10-19T12:12:58.311Z,67.76
2022-10-19T12:18:11.123Z,68.18
2022-10-19T12:23:25.587Z,68.56
2022-10-19T12:28:31.871Z,67.77
2022-10-19T12:33:46.528Z,68.30
2022-10-19T12:39:02.083Z,67.84
2022-10-19T12:44:21.697Z,68.10
2022-10-19T12:49:45.182Z,67.56
2022-10-19T12:54:48.840Z,67.53
2022-10-19T13:00:05.831Z,68.25
2022-10-19T13:05:21.918Z,68.12
2022-10-19T13:10:28.046Z,67.78
2022-10-19T13:15:52.617Z,67.98
2022-10-19T13:20:57.909Z,67.46
2022-10-19T13:26:31.630Z,67.46
2022-10-19T13:31:35.294Z,67.51
2022-10-19T13:36:59.460Z,68.04
2022-10-19T13:42:02.998Z,67.97
2022-10-19T13:47:39.687Z,67.86
2022-10-19T13:52:57.625Z,68.46
2022-10-19T13:58:25.808Z,68.88
2022-10-19T14:03:39.984Z,67.87
2022-10-19T14:09:20.613Z,68.67
2022-10-19T14:14:26.441Z,68.35
2022-10-19T14:19:32.584Z,68.63
2022-10-19T14:24:37.790Z,68.92
2022-10-19T14:29:48.011Z,68.97
2022-10-19T14:34:52.123Z,68.55
2022-10-19T14:40:02.781Z,68.55
2022-10-19T14:45:12.945Z,67.65
2022-10-19T14:50:16.748Z,67.19
2022-10-19T14:55:22.632Z,66.97
2022-10-19T15:05:36.463Z,65.05
2022-10-19T15:10:44.854Z,63.48
2022-10-19T15:15:52.222Z,62.80
2022-10-19T15:21:12.148Z,61.58
2022-10-19T15:26:28.131Z,59.71
2022-10-19T15:31:31.665Z,60.00
2022-10-19T15:36:35.222Z,59.51
2022-10-19T15:41:40.787Z,58.33
2022-10-19T15:47:14.493Z,56.43
2022-10-19T15:52:19.024Z,56.72
2022-10-19T15:57:33.245Z,55.14
2022-10-19T16:02:37.272Z,55.30
2022-10-19T16:07:41.690Z,53.99
2022-10-19T16:12:47.059Z,53.51
2022-10-19T16:17:52.773Z,53.51
2022-10-19T16:22:56.589Z,53.06
2022-10-19T16:28:01.785Z,51.24
2022-10-19T16:33:05.418Z,50.60
2022-10-19T16:38:08.947Z,49.17
2022-10-19T16:43:14.148Z,46.51
2022-10-19T16:48:20.806Z,44.53
2022-10-19T16:53:27.310Z,44.11
2022-10-19T16:58:32.498Z,44.75
2022-10-19T17:03:36.141Z,44.41
2022-10-19T17:09:02.734Z,43.61
2022-10-19T17:14:06.967Z,42.66
2022-10-19T17:19:11.681Z,42.89
2022-10-19T17:24:20.389Z,43.82
2022-10-19T17:29:26.714Z,42.83
2022-10-19T17:34:29.615Z,43.11
2022-10-19T17:39:33.166Z,44.39
2022-10-19T17:44:38.493Z,44.12
2022-10-19T17:49:42.122Z,43.58
2022-10-19T17:55:00.580Z,43.51
2022-10-19T18:00:14.466Z,43.48
2022-10-19T18:05:18.129Z,43.01
2022-10-19T18:10:21.701Z,43.50
2022-10-19T18:15:26.963Z,42.70
2022-10-19T18:20:30.502Z,42.74
2022-10-19T18:25:53.545Z,41.53
2022-10-19T18:31:05.947Z,41.87
2022-10-19T18:36:11.442Z,41.67
2022-10-19T18:41:15.032Z,41.35
2022-10-19T18:46:21.694Z,41.47
2022-10-19T18:51:25.470Z,41.47
2022-10-19T18:56:29.227Z,40.86
2022-10-19T19:01:37.197Z,39.66
2022-10-19T19:06:41.078Z,38.37
2022-10-19T19:11:44.615Z,37.15
2022-10-19T19:16:49.824Z,36.00
2022-10-19T19:21:53.345Z,35.87
2022-10-19T19:26:56.869Z,35.48
2022-10-19T19:32:02.014Z,34.57
2022-10-19T19:37:08.885Z,34.18
2022-10-19T19:42:15.490Z,33.72
2022-10-19T19:47:20.658Z,32.79
2022-10-19T19:52:24.186Z,32.31
2022-10-19T19:57:27.727Z,30.78
2022-10-19T20:02:32.941Z,29.64
2022-10-19T20:07:36.846Z,29.54
2022-10-19T20:12:40.602Z,29.36
2022-10-19T20:17:46.654Z,28.77
2022-10-19T20:22:50.663Z,27.57
2022-10-19T20:27:54.278Z,26.90
2022-10-19T20:33:00.408Z,27.35
2022-10-19T20:38:03.981Z,26.86
2022-10-19T20:43:07.504Z,26.85
2022-10-19T20:48:12.670Z,26.64
2022-10-19T20:53:16.176Z,25.36
2022-10-19T20:58:19.690Z,25.57
2022-10-19T21:03:24.887Z,23.72
2022-10-19T21:08:28.445Z,24.18
2022-10-19T21:13:31.974Z,22.80
2022-10-19T21:18:38.994Z,22.27
2022-10-19T21:23:42.678Z,21.20
2022-10-19T21:28:49.738Z,21.26
2022-10-19T21:33:55.423Z,22.05
2022-10-19T21:38:59.414Z,22.17
2022-10-19T21:44:02.941Z,21.91
2022-10-19T21:49:08.108Z,22.11
2022-10-19T21:54:13.724Z,21.40
2022-10-19T21:59:17.868Z,21.39
2022-10-19T22:04:22.316Z,20.84
2022-10-19T22:09:25.856Z,21.67
2022-10-19T22:14:29.393Z,21.50
2022-10-19T22:19:34.590Z,21.95
2022-10-19T22:24:41.068Z,22.53
2022-10-19T22:29:44.660Z,22.87
2022-10-19T22:34:50.799Z,23.37
2022-10-19T22:39:54.311Z,24.60
2022-10-19T22:44:57.907Z,24.99
2022-10-19T22:50:03.174Z,24.84
2022-10-19T22:55:07.341Z,25.31
2022-10-19T23:00:10.840Z,24.79
2022-10-19T23:05:16.198Z,24.66
2022-10-19T23:10:19.874Z,25.81
2022-10-19T23:15:23.466Z,25.43
2022-10-19T23:20:28.736Z,26.59
2022-10-19T23:30:40.710Z,27.45
2022-10-19T23:35:45.962Z,28.24
2022-10-19T23:40:49.517Z,29.68
2022-10-19T23:45:53.032Z,29.11
2022-10-19T23:51:03.163Z,29.63
2022-10-19T23:56:08.973Z,29.40
